sensor_id;sensor_type;location;lat;lon;timestamp;P1;durP1;ratioP1;P2;durP2;ratioP2
19621;SDS011;9958;33.196;-97.114;2023-07-16T00:00:11;7.72;;;4.63;;
19621;SDS011;9958;33.196;-97.114;2023-07-16T00:02:40;10.13;;;5.40;;
19621;SDS011;9958;33.196;-97.114;2023-07-16T00:05:10;12.60;;;4.72;;
19621;SDS011;9958;33.196;-97.114;2023-07-16T00:07:39;7.45;;;4.68;;
19621;SDS011;9958;33.196;-97.114;2023-07-16T00:10:07;9.65;;;5.15;;
19621;SDS011;9958;33.196;-97.114;2023-07-16T00:12:36;9.10;;;5.05;;
19621;SDS011;9958;33.196;-97.114;2023-07-16T00:15:05;8.30;;;4.72;;
19621;SDS011;9958;33.196;-97.114;2023-07-16T00:17:34;9.00;;;4.80;;
19621;SDS011;9958;33.196;-97.114;2023-07-16T00:20:03;5.82;;;4.60;;
19621;SDS011;9958;33.196;-97.114;2023-07-16T00:22:33;5.70;;;4.32;;
19621;SDS011;9958;33.196;-97.114;2023-07-16T00:25:04;11.63;;;5.20;;
19621;SDS011;9958;33.196;-97.114;2023-07-16T00:27:33;9.00;;;5.28;;
19621;SDS011;9958;33.196;-97.114;2023-07-16T00:30:02;11.10;;;4.68;;
19621;SDS011;9958;33.196;-97.114;2023-07-16T00:32:30;6.97;;;4.53;;
19621;SDS011;9958;33.196;-97.114;2023-07-16T00:34:59;10.35;;;4.57;;
19621;SDS011;9958;33.196;-97.114;2023-07-16T00:37:27;7.80;;;4.30;;
19621;SDS011;9958;33.196;-97.114;2023-07-16T00:39:57;8.73;;;4.32;;
19621;SDS011;9958;33.196;-97.114;2023-07-16T00:42:26;7.57;;;4.53;;
19621;SDS011;9958;33.196;-97.114;2023-07-16T00:44:54;7.57;;;4.57;;
19621;SDS011;9958;33.196;-97.114;2023-07-16T00:47:22;7.15;;;5.15;;
19621;SDS011;9958;33.196;-97.114;2023-07-16T00:49:51;9.27;;;5.13;;
19621;SDS011;9958;33.196;-97.114;2023-07-16T00:52:20;8.63;;;4.43;;
19621;SDS011;9958;33.196;-97.114;2023-07-16T00:54:49;8.48;;;4.78;;
19621;SDS011;9958;33.196;-97.114;2023-07-16T00:57:19;9.80;;;4.70;;
19621;SDS011;9958;33.196;-97.114;2023-07-16T00:59:47;13.38;;;4.93;;
19621;SDS011;9958;33.196;-97.114;2023-07-16T01:02:16;9.73;;;5.10;;
19621;SDS011;9958;33.196;-97.114;2023-07-16T01:04:44;12.27;;;4.40;;
19621;SDS011;9958;33.196;-97.114;2023-07-16T01:07:13;10.23;;;5.75;;
19621;SDS011;9958;33.196;-97.114;2023-07-16T01:09:43;9.55;;;4.80;;
19621;SDS011;9958;33.196;-97.114;2023-07-16T01:12:12;9.02;;;5.10;;
19621;SDS011;9958;33.196;-97.114;2023-07-16T01:14:43;7.50;;;5.07;;
19621;SDS011;9958;33.196;-97.114;2023-07-16T01:17:11;10.65;;;5.60;;
19621;SDS011;9958;33.196;-97.114;2023-07-16T01:19:40;6.53;;;4.43;;
19621;SDS011;9958;33.196;-97.114;2023-07-16T01:22:16;8.68;;;4.35;;
19621;SDS011;9958;33.196;-97.114;2023-07-16T01:25:10;9.65;;;4.68;;
19621;SDS011;9958;33.196;-97.114;2023-07-16T01:27:57;9.25;;;4.93;;
19621;SDS011;9958;33.196;-97.114;2023-07-16T01:30:34;7.55;;;4.72;;
19621;SDS011;9958;33.196;-97.114;2023-07-16T01:33:06;11.93;;;5.28;;
19621;SDS011;9958;33.196;-97.114;2023-07-16T01:35:37;6.88;;;4.70;;
19621;SDS011;9958;33.196;-97.114;2023-07-16T01:38:08;10.27;;;5.03;;
19621;SDS011;9958;33.196;-97.114;2023-07-16T01:40:37;12.25;;;4.55;;
19621;SDS011;9958;33.196;-97.114;2023-07-16T01:43:06;8.40;;;4.88;;
19621;SDS011;9958;33.196;-97.114;2023-07-16T01:45:36;8.80;;;5.00;;
19621;SDS011;9958;33.196;-97.114;2023-07-16T01:48:05;8.88;;;4.95;;
19621;SDS011;9958;33.196;-97.114;2023-07-16T01:50:41;9.93;;;5.40;;
19621;SDS011;9958;33.196;-97.114;2023-07-16T01:53:09;10.43;;;5.20;;
19621;SDS011;9958;33.196;-97.114;2023-07-16T01:55:38;10.55;;;5.63;;
19621;SDS011;9958;33.196;-97.114;2023-07-16T01:58:06;9.20;;;5.80;;
19621;SDS011;9958;33.196;-97.114;2023-07-16T02:00:36;10.27;;;5.68;;
19621;SDS011;9958;33.196;-97.114;2023-07-16T02:03:05;10.07;;;5.28;;
19621;SDS011;9958;33.196;-97.114;2023-07-16T02:05:34;9.35;;;5.55;;
19621;SDS011;9958;33.196;-97.114;2023-07-16T02:08:02;7.05;;;4.85;;
19621;SDS011;9958;33.196;-97.114;2023-07-16T02:10:31;7.57;;;4.82;;
19621;SDS011;9958;33.196;-97.114;2023-07-16T02:12:59;10.85;;;5.60;;
19621;SDS011;9958;33.196;-97.114;2023-07-16T02:15:28;9.05;;;5.38;;
19621;SDS011;9958;33.196;-97.114;2023-07-16T02:17:58;9.80;;;5.68;;
19621;SDS011;9958;33.196;-97.114;2023-07-16T02:20:26;8.23;;;5.15;;
19621;SDS011;9958;33.196;-97.114;2023-07-16T02:22:54;9.00;;;5.53;;
19621;SDS011;9958;33.196;-97.114;2023-07-16T02:25:23;10.18;;;5.78;;
19621;SDS011;9958;33.196;-97.114;2023-07-16T02:27:51;8.85;;;5.18;;
19621;SDS011;9958;33.196;-97.114;2023-07-16T02:30:19;11.90;;;5.95;;
19621;SDS011;9958;33.196;-97.114;2023-07-16T02:32:48;9.73;;;5.75;;
19621;SDS011;9958;33.196;-97.114;2023-07-16T02:35:18;6.80;;;5.07;;
19621;SDS011;9958;33.196;-97.114;2023-07-16T02:37:46;9.30;;;5.00;;
19621;SDS011;9958;33.196;-97.114;2023-07-16T02:40:14;7.90;;;4.95;;
19621;SDS011;9958;33.196;-97.114;2023-07-16T02:42:43;9.18;;;6.05;;
19621;SDS011;9958;33.196;-97.114;2023-07-16T02:45:11;8.25;;;5.18;;
19621;SDS011;9958;33.196;-97.114;2023-07-16T02:47:39;11.27;;;5.75;;
19621;SDS011;9958;33.196;-97.114;2023-07-16T02:50:08;11.27;;;5.82;;
19621;SDS011;9958;33.196;-97.114;2023-07-16T02:52:39;7.90;;;5.53;;
19621;SDS011;9958;33.196;-97.114;2023-07-16T02:55:07;11.75;;;5.32;;
19621;SDS011;9958;33.196;-97.114;2023-07-16T02:57:36;8.75;;;5.20;;
19621;SDS011;9958;33.196;-97.114;2023-07-16T03:00:04;8.95;;;5.50;;
19621;SDS011;9958;33.196;-97.114;2023-07-16T03:02:34;7.65;;;4.95;;
19621;SDS011;9958;33.196;-97.114;2023-07-16T03:05:02;8.60;;;5.82;;
19621;SDS011;9958;33.196;-97.114;2023-07-16T03:07:31;12.50;;;5.05;;
19621;SDS011;9958;33.196;-97.114;2023-07-16T03:10:01;10.00;;;5.85;;
19621;SDS011;9958;33.196;-97.114;2023-07-16T03:12:29;11.88;;;5.43;;
19621;SDS011;9958;33.196;-97.114;2023-07-16T03:14:57;12.50;;;5.88;;
19621;SDS011;9958;33.196;-97.114;2023-07-16T03:17:26;8.30;;;5.55;;
19621;SDS011;9958;33.196;-97.114;2023-07-16T03:19:54;10.80;;;5.82;;
19621;SDS011;9958;33.196;-97.114;2023-07-16T03:22:22;7.03;;;5.30;;
19621;SDS011;9958;33.196;-97.114;2023-07-16T03:24:51;8.07;;;5.82;;
19621;SDS011;9958;33.196;-97.114;2023-07-16T03:27:20;10.20;;;6.97;;
19621;SDS011;9958;33.196;-97.114;2023-07-16T03:29:49;9.82;;;5.20;;
19621;SDS011;9958;33.196;-97.114;2023-07-16T03:32:17;8.90;;;5.40;;
19621;SDS011;9958;33.196;-97.114;2023-07-16T03:34:45;11.07;;;5.07;;
19621;SDS011;9958;33.196;-97.114;2023-07-16T03:37:14;12.20;;;5.05;;
19621;SDS011;9958;33.196;-97.114;2023-07-16T03:39:42;13.45;;;5.20;;
19621;SDS011;9958;33.196;-97.114;2023-07-16T03:42:10;9.15;;;4.80;;
19621;SDS011;9958;33.196;-97.114;2023-07-16T03:44:40;9.18;;;4.65;;
19621;SDS011;9958;33.196;-97.114;2023-07-16T03:47:08;4.93;;;4.05;;
19621;SDS011;9958;33.196;-97.114;2023-07-16T03:49:37;7.53;;;4.10;;
19621;SDS011;9958;33.196;-97.114;2023-07-16T03:52:06;8.98;;;4.75;;
19621;SDS011;9958;33.196;-97.114;2023-07-16T03:54:34;6.75;;;4.32;;
19621;SDS011;9958;33.196;-97.114;2023-07-16T03:57:03;7.38;;;4.32;;
19621;SDS011;9958;33.196;-97.114;2023-07-16T03:59:31;8.95;;;4.43;;
19621;SDS011;9958;33.196;-97.114;2023-07-16T04:02:01;7.35;;;4.40;;
19621;SDS011;9958;33.196;-97.114;2023-07-16T04:04:30;9.00;;;4.30;;
19621;SDS011;9958;33.196;-97.114;2023-07-16T04:06:58;7.63;;;4.10;;
19621;SDS011;9958;33.196;-97.114;2023-07-16T04:09:26;10.23;;;4.38;;
19621;SDS011;9958;33.196;-97.114;2023-07-16T04:11:55;10.13;;;3.80;;
19621;SDS011;9958;33.196;-97.114;2023-07-16T04:14:23;8.32;;;4.05;;
19621;SDS011;9958;33.196;-97.114;2023-07-16T04:16:51;6.50;;;4.40;;
19621;SDS011;9958;33.196;-97.114;2023-07-16T04:19:21;6.75;;;4.43;;
19621;SDS011;9958;33.196;-97.114;2023-07-16T04:21:49;7.88;;;3.90;;
19621;SDS011;9958;33.196;-97.114;2023-07-16T04:24:18;7.47;;;3.95;;
19621;SDS011;9958;33.196;-97.114;2023-07-16T04:26:46;7.35;;;3.80;;
19621;SDS011;9958;33.196;-97.114;2023-07-16T04:29:14;7.03;;;4.10;;
19621;SDS011;9958;33.196;-97.114;2023-07-16T04:31:42;5.45;;;3.83;;
19621;SDS011;9958;33.196;-97.114;2023-07-16T04:34:11;6.03;;;3.47;;
19621;SDS011;9958;33.196;-97.114;2023-07-16T04:36:41;6.32;;;3.78;;
19621;SDS011;9958;33.196;-97.114;2023-07-16T04:39:10;6.57;;;3.38;;
19621;SDS011;9958;33.196;-97.114;2023-07-16T04:41:38;5.18;;;3.25;;
19621;SDS011;9958;33.196;-97.114;2023-07-16T04:44:06;7.90;;;3.40;;
19621;SDS011;9958;33.196;-97.114;2023-07-16T04:46:35;4.55;;;3.53;;
19621;SDS011;9958;33.196;-97.114;2023-07-16T04:49:04;5.57;;;3.60;;
19621;SDS011;9958;33.196;-97.114;2023-07-16T04:51:32;7.35;;;3.78;;
19621;SDS011;9958;33.196;-97.114;2023-07-16T04:54:02;7.22;;;3.65;;
19621;SDS011;9958;33.196;-97.114;2023-07-16T04:56:31;6.15;;;3.65;;
19621;SDS011;9958;33.196;-97.114;2023-07-16T04:58:59;7.82;;;3.72;;
19621;SDS011;9958;33.196;-97.114;2023-07-16T05:01:27;5.25;;;3.30;;
19621;SDS011;9958;33.196;-97.114;2023-07-16T05:03:56;9.10;;;3.42;;
19621;SDS011;9958;33.196;-97.114;2023-07-16T05:06:24;4.28;;;3.08;;
19621;SDS011;9958;33.196;-97.114;2023-07-16T05:08:52;5.88;;;3.30;;
19621;SDS011;9958;33.196;-97.114;2023-07-16T05:11:22;5.15;;;3.42;;
19621;SDS011;9958;33.196;-97.114;2023-07-16T05:13:51;3.90;;;2.85;;
19621;SDS011;9958;33.196;-97.114;2023-07-16T05:16:21;3.83;;;2.92;;
19621;SDS011;9958;33.196;-97.114;2023-07-16T05:18:49;5.43;;;3.38;;
19621;SDS011;9958;33.196;-97.114;2023-07-16T05:21:18;3.97;;;3.30;;
19621;SDS011;9958;33.196;-97.114;2023-07-16T05:23:46;6.25;;;3.28;;
19621;SDS011;9958;33.196;-97.114;2023-07-16T05:26:14;5.00;;;2.78;;
19621;SDS011;9958;33.196;-97.114;2023-07-16T05:28:44;5.32;;;3.25;;
19621;SDS011;9958;33.196;-97.114;2023-07-16T05:31:12;4.22;;;3.03;;
19621;SDS011;9958;33.196;-97.114;2023-07-16T05:33:41;5.38;;;3.15;;
19621;SDS011;9958;33.196;-97.114;2023-07-16T05:36:09;4.60;;;3.15;;
19621;SDS011;9958;33.196;-97.114;2023-07-16T05:38:37;5.63;;;3.25;;
19621;SDS011;9958;33.196;-97.114;2023-07-16T05:41:06;6.22;;;3.25;;
19621;SDS011;9958;33.196;-97.114;2023-07-16T05:43:34;5.55;;;3.20;;
19621;SDS011;9958;33.196;-97.114;2023-07-16T05:46:04;4.82;;;3.13;;
19621;SDS011;9958;33.196;-97.114;2023-07-16T05:48:32;5.20;;;3.33;;
19621;SDS011;9958;33.196;-97.114;2023-07-16T05:51:01;4.03;;;3.30;;
19621;SDS011;9958;33.196;-97.114;2023-07-16T05:53:29;5.95;;;3.20;;
19621;SDS011;9958;33.196;-97.114;2023-07-16T05:55:57;5.93;;;3.47;;
19621;SDS011;9958;33.196;-97.114;2023-07-16T05:58:25;3.13;;;2.83;;
19621;SDS011;9958;33.196;-97.114;2023-07-16T06:00:54;5.35;;;3.50;;
19621;SDS011;9958;33.196;-97.114;2023-07-16T06:03:24;5.30;;;3.13;;
19621;SDS011;9958;33.196;-97.114;2023-07-16T06:05:53;4.25;;;3.20;;
19621;SDS011;9958;33.196;-97.114;2023-07-16T06:08:21;6.10;;;3.47;;
19621;SDS011;9958;33.196;-97.114;2023-07-16T06:10:50;3.15;;;2.85;;
19621;SDS011;9958;33.196;-97.114;2023-07-16T06:13:18;4.18;;;3.45;;
19621;SDS011;9958;33.196;-97.114;2023-07-16T06:15:47;10.32;;;4.40;;
19621;SDS011;9958;33.196;-97.114;2023-07-16T06:18:15;4.25;;;3.50;;
19621;SDS011;9958;33.196;-97.114;2023-07-16T06:20:45;7.47;;;3.13;;
19621;SDS011;9958;33.196;-97.114;2023-07-16T06:23:14;3.45;;;3.15;;
19621;SDS011;9958;33.196;-97.114;2023-07-16T06:25:43;5.35;;;3.30;;
19621;SDS011;9958;33.196;-97.114;2023-07-16T06:28:13;4.43;;;3.25;;
19621;SDS011;9958;33.196;-97.114;2023-07-16T06:30:41;3.92;;;3.45;;
19621;SDS011;9958;33.196;-97.114;2023-07-16T06:33:10;5.50;;;3.35;;
19621;SDS011;9958;33.196;-97.114;2023-07-16T06:35:38;5.38;;;3.60;;
19621;SDS011;9958;33.196;-97.114;2023-07-16T06:38:08;4.32;;;3.45;;
19621;SDS011;9958;33.196;-97.114;2023-07-16T06:40:36;5.85;;;3.50;;
19621;SDS011;9958;33.196;-97.114;2023-07-16T06:43:04;5.97;;;3.20;;
19621;SDS011;9958;33.196;-97.114;2023-07-16T06:45:33;5.68;;;3.17;;
19621;SDS011;9958;33.196;-97.114;2023-07-16T06:48:01;4.38;;;3.50;;
19621;SDS011;9958;33.196;-97.114;2023-07-16T06:50:29;7.35;;;3.83;;
19621;SDS011;9958;33.196;-97.114;2023-07-16T06:52:58;5.60;;;3.15;;
19621;SDS011;9958;33.196;-97.114;2023-07-16T06:55:28;5.13;;;3.85;;
19621;SDS011;9958;33.196;-97.114;2023-07-16T06:57:56;5.05;;;3.75;;
19621;SDS011;9958;33.196;-97.114;2023-07-16T07:00:24;6.05;;;3.83;;
19621;SDS011;9958;33.196;-97.114;2023-07-16T07:02:53;3.38;;;3.08;;
19621;SDS011;9958;33.196;-97.114;2023-07-16T07:05:21;7.32;;;3.65;;
19621;SDS011;9958;33.196;-97.114;2023-07-16T07:07:50;4.88;;;3.42;;
19621;SDS011;9958;33.196;-97.114;2023-07-16T07:10:18;5.78;;;3.47;;
19621;SDS011;9958;33.196;-97.114;2023-07-16T07:12:48;5.25;;;4.00;;
19621;SDS011;9958;33.196;-97.114;2023-07-16T07:15:16;5.97;;;3.50;;
19621;SDS011;9958;33.196;-97.114;2023-07-16T07:17:45;6.85;;;3.75;;
19621;SDS011;9958;33.196;-97.114;2023-07-16T07:20:14;2.88;;;2.67;;
19621;SDS011;9958;33.196;-97.114;2023-07-16T07:22:42;6.35;;;3.50;;
19621;SDS011;9958;33.196;-97.114;2023-07-16T07:25:10;5.53;;;3.40;;
19621;SDS011;9958;33.196;-97.114;2023-07-16T07:27:39;3.65;;;3.35;;
19621;SDS011;9958;33.196;-97.114;2023-07-16T07:30:09;6.68;;;3.65;;
19621;SDS011;9958;33.196;-97.114;2023-07-16T07:32:38;6.90;;;3.75;;
19621;SDS011;9958;33.196;-97.114;2023-07-16T07:35:07;4.50;;;3.20;;
19621;SDS011;9958;33.196;-97.114;2023-07-16T07:37:36;8.55;;;4.00;;
19621;SDS011;9958;33.196;-97.114;2023-07-16T07:40:04;3.97;;;3.55;;
19621;SDS011;9958;33.196;-97.114;2023-07-16T07:42:34;7.05;;;4.00;;
19621;SDS011;9958;33.196;-97.114;2023-07-16T07:45:02;5.35;;;4.05;;
19621;SDS011;9958;33.196;-97.114;2023-07-16T07:47:33;4.93;;;3.88;;
19621;SDS011;9958;33.196;-97.114;2023-07-16T07:50:01;4.40;;;3.13;;
19621;SDS011;9958;33.196;-97.114;2023-07-16T07:52:30;5.20;;;3.72;;
19621;SDS011;9958;33.196;-97.114;2023-07-16T07:54:58;8.75;;;3.60;;
19621;SDS011;9958;33.196;-97.114;2023-07-16T07:57:26;6.65;;;3.55;;
19621;SDS011;9958;33.196;-97.114;2023-07-16T07:59:54;5.78;;;3.85;;
19621;SDS011;9958;33.196;-97.114;2023-07-16T08:02:23;7.28;;;4.22;;
19621;SDS011;9958;33.196;-97.114;2023-07-16T08:04:53;5.13;;;3.40;;
19621;SDS011;9958;33.196;-97.114;2023-07-16T08:07:22;4.45;;;3.58;;
19621;SDS011;9958;33.196;-97.114;2023-07-16T08:09:51;4.88;;;3.78;;
19621;SDS011;9958;33.196;-97.114;2023-07-16T08:12:19;4.75;;;3.17;;
19621;SDS011;9958;33.196;-97.114;2023-07-16T08:14:47;7.40;;;3.50;;
19621;SDS011;9958;33.196;-97.114;2023-07-16T08:17:16;5.05;;;3.50;;
19621;SDS011;9958;33.196;-97.114;2023-07-16T08:19:44;4.95;;;3.72;;
19621;SDS011;9958;33.196;-97.114;2023-07-16T08:22:14;6.93;;;3.72;;
19621;SDS011;9958;33.196;-97.114;2023-07-16T08:24:42;6.07;;;3.40;;
19621;SDS011;9958;33.196;-97.114;2023-07-16T08:27:11;6.47;;;3.50;;
19621;SDS011;9958;33.196;-97.114;2023-07-16T08:29:39;6.38;;;3.75;;
19621;SDS011;9958;33.196;-97.114;2023-07-16T08:32:07;4.25;;;3.03;;
19621;SDS011;9958;33.196;-97.114;2023-07-16T08:34:36;4.63;;;3.28;;
19621;SDS011;9958;33.196;-97.114;2023-07-16T08:37:04;3.80;;;3.45;;
19621;SDS011;9958;33.196;-97.114;2023-07-16T08:39:34;3.95;;;3.40;;
19621;SDS011;9958;33.196;-97.114;2023-07-16T08:42:03;6.18;;;3.35;;
19621;SDS011;9958;33.196;-97.114;2023-07-16T08:44:32;4.50;;;3.58;;
19621;SDS011;9958;33.196;-97.114;2023-07-16T08:47:01;4.88;;;3.10;;
19621;SDS011;9958;33.196;-97.114;2023-07-16T08:49:30;3.80;;;3.38;;
19621;SDS011;9958;33.196;-97.114;2023-07-16T08:52:00;4.13;;;3.20;;
19621;SDS011;9958;33.196;-97.114;2023-07-16T08:54:29;4.82;;;3.28;;
19621;SDS011;9958;33.196;-97.114;2023-07-16T08:56:59;4.93;;;3.22;;
19621;SDS011;9958;33.196;-97.114;2023-07-16T08:59:28;5.60;;;3.30;;
19621;SDS011;9958;33.196;-97.114;2023-07-16T09:01:57;5.57;;;3.50;;
19621;SDS011;9958;33.196;-97.114;2023-07-16T09:04:25;5.70;;;2.85;;
19621;SDS011;9958;33.196;-97.114;2023-07-16T09:06:55;4.72;;;3.38;;
19621;SDS011;9958;33.196;-97.114;2023-07-16T09:09:23;5.07;;;3.60;;
19621;SDS011;9958;33.196;-97.114;2023-07-16T09:11:52;5.10;;;3.10;;
19621;SDS011;9958;33.196;-97.114;2023-07-16T09:14:22;3.40;;;3.10;;
19621;SDS011;9958;33.196;-97.114;2023-07-16T09:16:51;7.32;;;3.20;;
19621;SDS011;9958;33.196;-97.114;2023-07-16T09:19:19;4.65;;;3.65;;
19621;SDS011;9958;33.196;-97.114;2023-07-16T09:21:48;4.03;;;3.45;;
19621;SDS011;9958;33.196;-97.114;2023-07-16T09:24:16;3.70;;;3.15;;
19621;SDS011;9958;33.196;-97.114;2023-07-16T09:26:48;6.55;;;3.60;;
19621;SDS011;9958;33.196;-97.114;2023-07-16T09:29:17;6.75;;;3.83;;
19621;SDS011;9958;33.196;-97.114;2023-07-16T09:31:54;3.92;;;3.50;;
19621;SDS011;9958;33.196;-97.114;2023-07-16T09:34:23;7.47;;;3.47;;
19621;SDS011;9958;33.196;-97.114;2023-07-16T09:36:54;5.28;;;3.45;;
19621;SDS011;9958;33.196;-97.114;2023-07-16T09:39:23;3.75;;;2.90;;
19621;SDS011;9958;33.196;-97.114;2023-07-16T09:41:53;5.55;;;4.10;;
19621;SDS011;9958;33.196;-97.114;2023-07-16T09:44:22;4.38;;;2.85;;
19621;SDS011;9958;33.196;-97.114;2023-07-16T09:46:51;5.75;;;3.25;;
19621;SDS011;9958;33.196;-97.114;2023-07-16T09:49:21;6.57;;;3.42;;
19621;SDS011;9958;33.196;-97.114;2023-07-16T09:51:49;4.72;;;3.83;;
19621;SDS011;9958;33.196;-97.114;2023-07-16T09:54:19;5.13;;;3.22;;
19621;SDS011;9958;33.196;-97.114;2023-07-16T09:56:49;4.57;;;3.38;;
19621;SDS011;9958;33.196;-97.114;2023-07-16T09:59:23;5.18;;;3.20;;
19621;SDS011;9958;33.196;-97.114;2023-07-16T10:01:54;8.52;;;3.50;;
19621;SDS011;9958;33.196;-97.114;2023-07-16T10:04:25;3.47;;;3.17;;
19621;SDS011;9958;33.196;-97.114;2023-07-16T10:06:53;3.53;;;3.20;;
19621;SDS011;9958;33.196;-97.114;2023-07-16T10:09:32;6.50;;;3.42;;
19621;SDS011;9958;33.196;-97.114;2023-07-16T10:14:50;4.32;;;3.03;;
19621;SDS011;9958;33.196;-97.114;2023-07-16T10:17:23;7.47;;;3.42;;
19621;SDS011;9958;33.196;-97.114;2023-07-16T10:19:55;4.80;;;3.42;;
19621;SDS011;9958;33.196;-97.114;2023-07-16T10:22:31;5.00;;;3.28;;
19621;SDS011;9958;33.196;-97.114;2023-07-16T10:25:01;3.97;;;3.42;;
19621;SDS011;9958;33.196;-97.114;2023-07-16T10:27:31;3.85;;;3.22;;
19621;SDS011;9958;33.196;-97.114;2023-07-16T10:30:00;4.93;;;2.97;;
19621;SDS011;9958;33.196;-97.114;2023-07-16T10:32:30;5.57;;;3.30;;
19621;SDS011;9958;33.196;-97.114;2023-07-16T10:35:01;3.92;;;3.53;;
19621;SDS011;9958;33.196;-97.114;2023-07-16T10:37:31;4.22;;;2.85;;
19621;SDS011;9958;33.196;-97.114;2023-07-16T10:39:59;3.90;;;3.28;;
19621;SDS011;9958;33.196;-97.114;2023-07-16T10:42:30;4.00;;;3.22;;
19621;SDS011;9958;33.196;-97.114;2023-07-16T10:44:59;5.90;;;3.38;;
19621;SDS011;9958;33.196;-97.114;2023-07-16T10:47:29;4.55;;;3.33;;
19621;SDS011;9958;33.196;-97.114;2023-07-16T10:50:02;4.80;;;3.17;;
19621;SDS011;9958;33.196;-97.114;2023-07-16T10:52:33;4.45;;;2.97;;
19621;SDS011;9958;33.196;-97.114;2023-07-16T10:55:03;2.97;;;2.75;;
19621;SDS011;9958;33.196;-97.114;2023-07-16T10:57:32;3.13;;;2.83;;
19621;SDS011;9958;33.196;-97.114;2023-07-16T11:00:00;4.32;;;2.72;;
19621;SDS011;9958;33.196;-97.114;2023-07-16T11:02:30;4.32;;;3.50;;
19621;SDS011;9958;33.196;-97.114;2023-07-16T11:04:58;4.57;;;3.10;;
19621;SDS011;9958;33.196;-97.114;2023-07-16T11:07:29;3.22;;;2.92;;
19621;SDS011;9958;33.196;-97.114;2023-07-16T11:09:58;4.10;;;3.00;;
19621;SDS011;9958;33.196;-97.114;2023-07-16T11:12:28;3.97;;;2.90;;
19621;SDS011;9958;33.196;-97.114;2023-07-16T11:14:56;4.22;;;2.92;;
19621;SDS011;9958;33.196;-97.114;2023-07-16T11:17:25;5.28;;;3.20;;
19621;SDS011;9958;33.196;-97.114;2023-07-16T11:19:53;3.83;;;3.10;;
19621;SDS011;9958;33.196;-97.114;2023-07-16T11:22:26;4.70;;;2.85;;
19621;SDS011;9958;33.196;-97.114;2023-07-16T11:24:55;5.78;;;3.17;;
19621;SDS011;9958;33.196;-97.114;2023-07-16T11:27:25;3.92;;;3.40;;
19621;SDS011;9958;33.196;-97.114;2023-07-16T11:29:54;3.78;;;2.92;;
19621;SDS011;9958;33.196;-97.114;2023-07-16T11:32:27;4.15;;;3.28;;
19621;SDS011;9958;33.196;-97.114;2023-07-16T11:34:56;3.30;;;2.80;;
19621;SDS011;9958;33.196;-97.114;2023-07-16T11:37:27;4.32;;;2.80;;
19621;SDS011;9958;33.196;-97.114;2023-07-16T11:39:57;3.28;;;2.97;;
19621;SDS011;9958;33.196;-97.114;2023-07-16T11:42:28;5.93;;;3.10;;
19621;SDS011;9958;33.196;-97.114;2023-07-16T11:44:57;3.00;;;2.70;;
19621;SDS011;9958;33.196;-97.114;2023-07-16T11:47:26;3.13;;;2.83;;
19621;SDS011;9958;33.196;-97.114;2023-07-16T11:49:55;5.97;;;3.15;;
19621;SDS011;9958;33.196;-97.114;2023-07-16T11:52:23;4.05;;;3.05;;
19621;SDS011;9958;33.196;-97.114;2023-07-16T11:54:56;4.32;;;3.08;;
19621;SDS011;9958;33.196;-97.114;2023-07-16T11:57:26;4.15;;;3.10;;
19621;SDS011;9958;33.196;-97.114;2023-07-16T11:59:55;6.05;;;3.63;;
19621;SDS011;9958;33.196;-97.114;2023-07-16T12:02:24;3.72;;;3.10;;
19621;SDS011;9958;33.196;-97.114;2023-07-16T12:04:54;4.70;;;2.83;;
19621;SDS011;9958;33.196;-97.114;2023-07-16T12:07:30;3.10;;;2.88;;
19621;SDS011;9958;33.196;-97.114;2023-07-16T12:10:01;4.28;;;2.85;;
19621;SDS011;9958;33.196;-97.114;2023-07-16T12:12:30;3.85;;;2.97;;
19621;SDS011;9958;33.196;-97.114;2023-07-16T12:14:58;3.50;;;3.05;;
19621;SDS011;9958;33.196;-97.114;2023-07-16T12:17:27;2.90;;;2.67;;
19621;SDS011;9958;33.196;-97.114;2023-07-16T12:19:55;3.03;;;2.78;;
19621;SDS011;9958;33.196;-97.114;2023-07-16T12:22:24;4.22;;;3.30;;
19621;SDS011;9958;33.196;-97.114;2023-07-16T12:24:52;4.97;;;3.03;;
19621;SDS011;9958;33.196;-97.114;2023-07-16T12:27:22;4.20;;;3.08;;
19621;SDS011;9958;33.196;-97.114;2023-07-16T12:29:50;3.75;;;2.90;;
19621;SDS011;9958;33.196;-97.114;2023-07-16T12:32:19;4.40;;;3.20;;
19621;SDS011;9958;33.196;-97.114;2023-07-16T12:34:47;3.40;;;3.10;;
19621;SDS011;9958;33.196;-97.114;2023-07-16T12:37:15;4.38;;;3.17;;
19621;SDS011;9958;33.196;-97.114;2023-07-16T12:39:44;3.83;;;2.80;;
19621;SDS011;9958;33.196;-97.114;2023-07-16T12:42:12;6.97;;;3.25;;
19621;SDS011;9958;33.196;-97.114;2023-07-16T12:44:42;3.47;;;3.00;;
19621;SDS011;9958;33.196;-97.114;2023-07-16T12:47:10;3.75;;;3.30;;
19621;SDS011;9958;33.196;-97.114;2023-07-16T12:49:38;5.68;;;3.00;;
19621;SDS011;9958;33.196;-97.114;2023-07-16T12:52:07;4.47;;;3.28;;
19621;SDS011;9958;33.196;-97.114;2023-07-16T12:54:35;3.60;;;3.25;;
19621;SDS011;9958;33.196;-97.114;2023-07-16T12:57:04;5.38;;;3.28;;
19621;SDS011;9958;33.196;-97.114;2023-07-16T12:59:33;3.67;;;3.10;;
19621;SDS011;9958;33.196;-97.114;2023-07-16T13:02:03;5.60;;;3.42;;
19621;SDS011;9958;33.196;-97.114;2023-07-16T13:04:31;5.68;;;3.20;;
19621;SDS011;9958;33.196;-97.114;2023-07-16T13:07:00;3.45;;;3.15;;
19621;SDS011;9958;33.196;-97.114;2023-07-16T13:09:28;4.97;;;3.28;;
19621;SDS011;9958;33.196;-97.114;2023-07-16T13:11:56;4.57;;;3.17;;
19621;SDS011;9958;33.196;-97.114;2023-07-16T13:14:25;3.88;;;3.25;;
19621;SDS011;9958;33.196;-97.114;2023-07-16T13:16:54;6.78;;;3.67;;
19621;SDS011;9958;33.196;-97.114;2023-07-16T13:19:24;4.15;;;3.50;;
19621;SDS011;9958;33.196;-97.114;2023-07-16T13:21:52;5.82;;;3.88;;
19621;SDS011;9958;33.196;-97.114;2023-07-16T13:24:20;3.47;;;3.13;;
19621;SDS011;9958;33.196;-97.114;2023-07-16T13:26:50;4.25;;;3.50;;
19621;SDS011;9958;33.196;-97.114;2023-07-16T13:29:19;3.67;;;3.38;;
19621;SDS011;9958;33.196;-97.114;2023-07-16T13:31:47;4.93;;;3.60;;
19621;SDS011;9958;33.196;-97.114;2023-07-16T13:34:15;5.40;;;3.40;;
19621;SDS011;9958;33.196;-97.114;2023-07-16T13:36:45;11.20;;;3.70;;
19621;SDS011;9958;33.196;-97.114;2023-07-16T13:39:13;5.55;;;4.15;;
19621;SDS011;9958;33.196;-97.114;2023-07-16T13:41:42;5.63;;;3.75;;
19621;SDS011;9958;33.196;-97.114;2023-07-16T13:44:10;5.50;;;3.63;;
19621;SDS011;9958;33.196;-97.114;2023-07-16T13:46:39;4.70;;;3.38;;
19621;SDS011;9958;33.196;-97.114;2023-07-16T13:49:08;4.40;;;3.50;;
19621;SDS011;9958;33.196;-97.114;2023-07-16T13:51:36;5.10;;;4.10;;
19621;SDS011;9958;33.196;-97.114;2023-07-16T13:54:06;6.75;;;4.78;;
19621;SDS011;9958;33.196;-97.114;2023-07-16T13:56:35;5.45;;;4.03;;
19621;SDS011;9958;33.196;-97.114;2023-07-16T13:59:03;4.95;;;2.95;;
19621;SDS011;9958;33.196;-97.114;2023-07-16T14:01:31;2.50;;;1.90;;
19621;SDS011;9958;33.196;-97.114;2023-07-16T14:04:00;3.95;;;1.60;;
19621;SDS011;9958;33.196;-97.114;2023-07-16T14:06:28;2.15;;;1.45;;
19621;SDS011;9958;33.196;-97.114;2023-07-16T14:08:56;6.13;;;1.75;;
19621;SDS011;9958;33.196;-97.114;2023-07-16T14:11:26;3.42;;;1.95;;
19621;SDS011;9958;33.196;-97.114;2023-07-16T14:13:55;5.07;;;1.60;;
19621;SDS011;9958;33.196;-97.114;2023-07-16T14:16:23;6.32;;;1.88;;
19621;SDS011;9958;33.196;-97.114;2023-07-16T14:18:52;2.33;;;1.63;;
19621;SDS011;9958;33.196;-97.114;2023-07-16T14:21:20;5.97;;;1.67;;
19621;SDS011;9958;33.196;-97.114;2023-07-16T14:23:50;2.25;;;1.20;;
19621;SDS011;9958;33.196;-97.114;2023-07-16T14:26:19;4.82;;;1.60;;
19621;SDS011;9958;33.196;-97.114;2023-07-16T14:28:48;2.28;;;1.50;;
19621;SDS011;9958;33.196;-97.114;2023-07-16T14:31:17;2.40;;;1.63;;
19621;SDS011;9958;33.196;-97.114;2023-07-16T14:33:45;2.25;;;1.52;;
19621;SDS011;9958;33.196;-97.114;2023-07-16T14:36:13;4.82;;;1.98;;
19621;SDS011;9958;33.196;-97.114;2023-07-16T14:38:42;4.72;;;1.98;;
19621;SDS011;9958;33.196;-97.114;2023-07-16T14:41:10;4.40;;;2.10;;
19621;SDS011;9958;33.196;-97.114;2023-07-16T14:43:38;5.20;;;2.20;;
19621;SDS011;9958;33.196;-97.114;2023-07-16T14:46:08;3.78;;;2.10;;